createdAt,value
2019-01-26T00:00:25.323Z,1006.27
2019-01-26T00:01:25.300Z,1006.28
2019-01-26T00:02:25.291Z,1006.25
2019-01-26T00:03:25.324Z,1006.27
2019-01-26T00:04:25.273Z,1006.22
2019-01-26T00:05:25.263Z,1006.18
2019-01-26T00:06:25.261Z,1006.17
2019-01-26T00:07:25.244Z,1006.19
2019-01-26T00:08:25.231Z,1006.13
2019-01-26T00:09:25.262Z,1006.21
2019-01-26T00:10:25.211Z,1006.14
2019-01-26T00:11:25.205Z,1006.16
2019-01-26T00:12:25.192Z,1006.11
2019-01-26T00:13:25.186Z,1006.09
2019-01-26T00:14:25.175Z,1006.05
2019-01-26T00:15:25.181Z,1006.00
2019-01-26T00:16:25.151Z,1006.00
2019-01-26T00:17:25.142Z,1006.02
2019-01-26T00:18:35.317Z,1006.01
2019-01-26T00:19:25.127Z,1005.96
2019-01-26T00:20:25.109Z,1006.01
2019-01-26T00:21:25.138Z,1005.97
2019-01-26T00:22:25.094Z,1005.94
2019-01-26T00:23:25.084Z,1005.90
2019-01-26T00:24:25.071Z,1005.83
2019-01-26T00:25:25.059Z,1005.88
2019-01-26T00:26:25.052Z,1005.88
2019-01-26T00:27:25.115Z,1005.84
2019-01-26T00:28:25.032Z,1005.84
2019-01-26T00:29:25.019Z,1005.80
2019-01-26T00:30:25.016Z,1005.75
2019-01-26T00:31:25.006Z,1005.71
2019-01-26T00:32:24.996Z,1005.76
2019-01-26T00:33:25.018Z,1005.74
2019-01-26T00:34:24.974Z,1005.70
2019-01-26T00:35:24.967Z,1005.70
2019-01-26T00:36:24.949Z,1005.67
2019-01-26T00:37:24.950Z,1005.66
2019-01-26T00:38:24.928Z,1005.70
2019-01-26T00:39:24.969Z,1005.64
2019-01-26T00:40:24.912Z,1005.69
2019-01-26T00:41:24.904Z,1005.65
2019-01-26T00:42:24.891Z,1005.69
2019-01-26T00:43:24.887Z,1005.59
2019-01-26T00:44:24.870Z,1005.60
2019-01-26T00:45:25.053Z,1005.56
2019-01-26T00:46:28.554Z,1005.55
2019-01-26T00:47:24.841Z,1005.53
2019-01-26T00:48:24.833Z,1005.50
2019-01-26T00:49:35.617Z,1005.47
2019-01-26T00:50:24.807Z,1005.45
2019-01-26T00:51:24.854Z,1005.44
2019-01-26T00:52:24.790Z,1005.49
2019-01-26T00:53:24.783Z,1005.36
2019-01-26T00:54:24.776Z,1005.34
2019-01-26T00:55:24.758Z,1005.34
2019-01-26T00:56:24.749Z,1005.35
2019-01-26T00:57:24.783Z,1005.34
2019-01-26T00:58:24.728Z,1005.31
2019-01-26T00:59:24.725Z,1005.28
2019-01-26T01:00:24.717Z,1005.29
2019-01-26T01:01:24.699Z,1005.28
2019-01-26T01:02:24.699Z,1005.30
2019-01-26T01:03:24.749Z,1005.27
2019-01-26T01:04:24.670Z,1005.28
2019-01-26T01:05:24.663Z,1005.22
2019-01-26T01:06:26.082Z,1005.22
2019-01-26T01:07:24.639Z,1005.20
2019-01-26T01:08:24.639Z,1005.14
2019-01-26T01:09:24.688Z,1005.11
2019-01-26T01:10:24.615Z,1005.08
2019-01-26T01:11:24.602Z,1005.08
2019-01-26T01:12:24.590Z,1005.08
2019-01-26T01:13:24.583Z,1005.01
2019-01-26T01:14:24.571Z,1005.04
2019-01-26T01:15:24.603Z,1005.02
2019-01-26T01:16:24.545Z,1005.01
2019-01-26T01:17:24.540Z,1004.99
2019-01-26T01:18:24.528Z,1005.01
2019-01-26T01:19:24.521Z,1005.00
2019-01-26T01:20:35.025Z,1004.99
2019-01-26T01:21:24.497Z,1004.98
2019-01-26T01:22:24.487Z,1004.96
2019-01-26T01:23:24.481Z,1004.97
2019-01-26T01:24:24.472Z,1005.03
2019-01-26T01:25:24.477Z,1005.03
2019-01-26T01:26:24.486Z,1004.99
2019-01-26T01:27:24.443Z,1004.99
2019-01-26T01:28:24.440Z,1005.00
2019-01-26T01:29:24.427Z,1004.98
2019-01-26T01:30:24.405Z,1004.91
2019-01-26T01:31:24.400Z,1004.92
2019-01-26T01:32:24.429Z,1004.90
2019-01-26T01:33:24.381Z,1004.90
2019-01-26T01:34:24.375Z,1004.87
2019-01-26T01:35:24.357Z,1004.88
2019-01-26T01:36:24.350Z,1004.84
2019-01-26T01:37:24.339Z,1004.83
2019-01-26T01:38:24.493Z,1004.79
2019-01-26T01:39:24.371Z,1004.80
2019-01-26T01:40:24.331Z,1004.81
2019-01-26T01:41:24.300Z,1004.85
2019-01-26T01:42:24.291Z,1004.83
2019-01-26T01:43:24.280Z,1004.79
2019-01-26T01:44:24.310Z,1004.76
2019-01-26T01:45:24.260Z,1004.79
2019-01-26T01:46:24.247Z,1004.81
2019-01-26T01:47:24.238Z,1004.78
2019-01-26T01:48:24.227Z,1004.74
2019-01-26T01:49:24.222Z,1004.67
2019-01-26T01:50:24.224Z,1004.71
2019-01-26T01:51:34.490Z,1004.71
2019-01-26T01:52:24.192Z,1004.72
2019-01-26T01:53:24.178Z,1004.65
2019-01-26T01:54:24.170Z,1004.68
2019-01-26T01:55:24.156Z,1004.67
2019-01-26T01:56:24.185Z,1004.65
2019-01-26T01:57:24.140Z,1004.67
2019-01-26T01:58:24.124Z,1004.69
2019-01-26T01:59:24.122Z,1004.60
2019-01-26T02:00:31.093Z,1004.60
2019-01-26T02:01:24.111Z,1004.65
2019-01-26T02:02:24.531Z,1004.61
2019-01-26T02:03:24.982Z,1004.56
2019-01-26T02:04:24.987Z,1004.56
2019-01-26T02:05:24.162Z,1004.60
2019-01-26T02:06:24.089Z,1004.52
2019-01-26T02:07:24.037Z,1004.50
2019-01-26T02:08:24.190Z,1004.53
2019-01-26T02:09:24.027Z,1004.49
2019-01-26T02:10:24.061Z,1004.47
2019-01-26T02:11:24.987Z,1004.46
2019-01-26T02:12:23.992Z,1004.48
2019-01-26T02:13:24.481Z,1004.45
2019-01-26T02:14:24.009Z,1004.52
2019-01-26T02:15:24.476Z,1004.45
2019-01-26T02:16:23.948Z,1004.45
2019-01-26T02:17:24.016Z,1004.45
2019-01-26T02:18:23.927Z,1004.45
2019-01-26T02:19:23.931Z,1004.40
2019-01-26T02:20:24.521Z,1004.42
2019-01-26T02:21:23.895Z,1004.42
2019-01-26T02:22:23.892Z,1004.37
2019-01-26T02:23:23.887Z,1004.36
2019-01-26T02:24:24.480Z,1004.40
2019-01-26T02:25:23.852Z,1004.35
2019-01-26T02:26:24.475Z,1004.32
2019-01-26T02:27:23.839Z,1004.27
2019-01-26T02:28:23.824Z,1004.33
2019-01-26T02:29:23.818Z,1004.33
2019-01-26T02:30:23.823Z,1004.30
2019-01-26T02:31:34.053Z,1004.32
2019-01-26T02:32:23.782Z,1004.27
2019-01-26T02:33:23.774Z,1004.22
2019-01-26T02:34:23.770Z,1004.25
2019-01-26T02:35:23.761Z,1004.26
2019-01-26T02:36:23.746Z,1004.23
2019-01-26T02:37:23.775Z,1004.26
2019-01-26T02:38:23.729Z,1004.26
2019-01-26T02:39:23.722Z,1004.23
2019-01-26T02:40:23.708Z,1004.21
2019-01-26T02:41:23.697Z,1004.20
2019-01-26T02:42:23.684Z,1004.20
2019-01-26T02:43:23.716Z,1004.17
2019-01-26T02:44:23.671Z,1004.17
2019-01-26T02:45:23.656Z,1004.13
2019-01-26T02:46:23.655Z,1004.12
2019-01-26T02:47:23.634Z,1004.13
2019-01-26T02:48:23.624Z,1004.08
2019-01-26T02:49:23.658Z,1004.09
2019-01-26T02:50:23.609Z,1004.03
2019-01-26T02:51:23.596Z,1004.08
2019-01-26T02:52:23.583Z,1004.05
2019-01-26T02:53:23.575Z,1004.02
2019-01-26T02:54:23.566Z,1003.99
2019-01-26T02:55:23.587Z,1003.99
2019-01-26T02:56:23.552Z,1003.97
2019-01-26T02:57:23.540Z,1003.91
2019-01-26T02:58:23.527Z,1003.95
2019-01-26T02:59:23.511Z,1003.90
2019-01-26T03:00:23.507Z,1003.88
2019-01-26T03:01:23.526Z,1003.88
2019-01-26T03:02:33.476Z,1003.84
2019-01-26T03:03:23.478Z,1003.80
2019-01-26T03:04:23.461Z,1003.82
2019-01-26T03:05:23.457Z,1003.75
2019-01-26T03:06:23.449Z,1003.81
2019-01-26T03:07:23.477Z,1003.73
2019-01-26T03:08:23.427Z,1003.73
2019-01-26T03:09:23.417Z,1003.73
2019-01-26T03:10:23.413Z,1003.71
2019-01-26T03:11:23.395Z,1003.70
2019-01-26T03:12:23.383Z,1003.68
2019-01-26T03:13:23.411Z,1003.66
2019-01-26T03:14:23.367Z,1003.59
2019-01-26T03:15:23.365Z,1003.58
2019-01-26T03:16:23.343Z,1003.57
2019-01-26T03:17:23.334Z,1003.52
2019-01-26T03:18:23.323Z,1003.51
2019-01-26T03:19:23.348Z,1003.52
2019-01-26T03:20:23.300Z,1003.49
2019-01-26T03:21:23.300Z,1003.44
2019-01-26T03:22:23.282Z,1003.45
2019-01-26T03:23:23.269Z,1003.44
2019-01-26T03:24:23.259Z,1003.49
2019-01-26T03:25:23.292Z,1003.44
2019-01-26T03:26:23.244Z,1003.41
2019-01-26T03:27:23.242Z,1003.38
2019-01-26T03:28:23.222Z,1003.39
2019-01-26T03:29:23.213Z,1003.33
2019-01-26T03:30:23.202Z,1003.33
2019-01-26T03:31:23.226Z,1003.33
2019-01-26T03:32:23.193Z,1003.31
2019-01-26T03:33:33.635Z,1003.32
2019-01-26T03:34:23.162Z,1003.26
2019-01-26T03:35:23.158Z,1003.28
2019-01-26T03:36:23.148Z,1003.21
2019-01-26T03:37:23.171Z,1003.21
2019-01-26T03:38:23.134Z,1003.20
2019-01-26T03:39:23.109Z,1003.19
2019-01-26T03:40:23.109Z,1003.18
2019-01-26T03:41:23.101Z,1003.17
2019-01-26T03:42:23.082Z,1003.14
2019-01-26T03:43:23.111Z,1003.13
2019-01-26T03:44:23.066Z,1003.10
2019-01-26T03:45:23.052Z,1003.11
2019-01-26T03:46:23.045Z,1003.14
2019-01-26T03:47:23.038Z,1003.05
2019-01-26T03:48:23.018Z,1003.06
2019-01-26T03:49:23.054Z,1003.05
2019-01-26T03:50:23.003Z,1003.02
2019-01-26T03:51:22.998Z,1003.01
2019-01-26T03:52:22.979Z,1002.98
2019-01-26T03:53:22.995Z,1003.05
2019-01-26T03:54:22.958Z,1002.94
2019-01-26T03:55:22.987Z,1002.98
2019-01-26T03:56:22.946Z,1002.98
2019-01-26T03:57:22.932Z,1002.97
2019-01-26T03:58:22.924Z,1002.92
2019-01-26T03:59:22.921Z,1002.94
2019-01-26T04:00:22.907Z,1002.93
2019-01-26T04:01:22.913Z,1002.92
2019-01-26T04:02:22.880Z,1002.88
2019-01-26T04:03:22.871Z,1002.89
2019-01-26T04:04:33.388Z,1002.86
2019-01-26T04:05:22.853Z,1002.87
2019-01-26T04:06:22.840Z,1002.84
2019-01-26T04:07:22.878Z,1002.86
2019-01-26T04:08:22.821Z,1002.84
2019-01-26T04:09:22.823Z,1002.82
2019-01-26T04:10:22.800Z,1002.75
2019-01-26T04:11:22.799Z,1002.79
2019-01-26T04:12:22.782Z,1002.84
2019-01-26T04:13:22.821Z,1002.81
2019-01-26T04:14:22.761Z,1002.83
2019-01-26T04:15:22.753Z,1002.76
2019-01-26T04:16:22.744Z,1002.75
2019-01-26T04:17:22.731Z,1002.75
2019-01-26T04:18:22.728Z,1002.75
2019-01-26T04:19:22.870Z,1002.70
2019-01-26T04:20:22.703Z,1002.74
2019-01-26T04:21:22.695Z,1002.71
2019-01-26T04:22:22.684Z,1002.70
2019-01-26T04:23:22.671Z,1002.71
2019-01-26T04:24:22.673Z,1002.68
2019-01-26T04:25:22.690Z,1002.69
2019-01-26T04:26:22.640Z,1002.64
2019-01-26T04:27:22.635Z,1002.66
2019-01-26T04:28:22.622Z,1002.61
2019-01-26T04:29:22.611Z,1002.59
2019-01-26T04:30:22.611Z,1002.53
2019-01-26T04:31:22.612Z,1002.53
2019-01-26T04:32:22.587Z,1002.53
2019-01-26T04:33:22.573Z,1002.52
2019-01-26T04:34:22.566Z,1002.53
2019-01-26T04:35:33.696Z,1002.45
2019-01-26T04:36:22.538Z,1002.46
2019-01-26T04:37:22.568Z,1002.50
2019-01-26T04:38:22.522Z,1002.40
2019-01-26T04:39:22.521Z,1002.40
2019-01-26T04:40:22.503Z,1002.42
2019-01-26T04:41:22.491Z,1002.39
2019-01-26T04:42:22.485Z,1002.40
2019-01-26T04:43:22.513Z,1002.37
2019-01-26T04:44:22.471Z,1002.39
2019-01-26T04:45:22.464Z,1002.36
2019-01-26T04:46:22.438Z,1002.34
2019-01-26T04:47:30.526Z,1002.34
2019-01-26T04:48:23.474Z,1002.31
2019-01-26T04:49:22.411Z,1002.28
2019-01-26T04:50:22.399Z,1002.27
2019-01-26T04:51:22.393Z,1002.29
2019-01-26T04:52:22.450Z,1002.26
2019-01-26T04:53:22.368Z,1002.27
2019-01-26T04:54:22.458Z,1002.28
2019-01-26T04:55:22.384Z,1002.26
2019-01-26T04:56:22.343Z,1002.22
2019-01-26T04:57:22.333Z,1002.23
2019-01-26T04:58:22.325Z,1002.23
2019-01-26T04:59:22.307Z,1002.17
2019-01-26T05:00:22.331Z,1002.21
2019-01-26T05:01:22.300Z,1002.12
2019-01-26T05:02:22.279Z,1002.12
2019-01-26T05:03:22.269Z,1002.11
2019-01-26T05:04:22.259Z,1002.08
2019-01-26T05:05:22.259Z,1002.06
2019-01-26T05:06:34.110Z,1002.07
2019-01-26T05:07:22.237Z,1001.97
2019-01-26T05:08:22.216Z,1001.96
2019-01-26T05:09:22.210Z,1001.95
2019-01-26T05:10:22.200Z,1002.00
2019-01-26T05:11:22.196Z,1001.92
2019-01-26T05:12:22.214Z,1001.99
2019-01-26T05:13:22.182Z,1001.96
2019-01-26T05:14:22.170Z,1001.90
2019-01-26T05:15:22.150Z,1001.96
2019-01-26T05:16:22.138Z,1001.87
2019-01-26T05:17:22.126Z,1001.88
2019-01-26T05:18:22.166Z,1001.87
2019-01-26T05:19:22.116Z,1001.83
2019-01-26T05:20:22.105Z,1001.85
2019-01-26T05:21:22.093Z,1001.79
2019-01-26T05:22:22.078Z,1001.80
2019-01-26T05:23:22.074Z,1001.71
2019-01-26T05:24:22.101Z,1001.71
2019-01-26T05:25:22.055Z,1001.76
2019-01-26T05:26:22.035Z,1001.71
2019-01-26T05:27:22.025Z,1001.67
2019-01-26T05:28:22.018Z,1001.72
2019-01-26T05:29:22.012Z,1001.75
2019-01-26T05:30:22.136Z,1001.70
2019-01-26T05:31:21.995Z,1001.72
2019-01-26T05:32:21.978Z,1001.69
2019-01-26T05:33:21.968Z,1001.68
2019-01-26T05:34:21.957Z,1001.65
2019-01-26T05:35:21.948Z,1001.68
2019-01-26T05:36:21.977Z,1001.66
2019-01-26T05:37:32.370Z,1001.70
2019-01-26T05:38:21.920Z,1001.68
2019-01-26T05:39:21.909Z,1001.63
2019-01-26T05:40:21.903Z,1001.60
2019-01-26T05:41:21.894Z,1001.51
2019-01-26T05:42:22.062Z,1001.56
2019-01-26T05:43:21.880Z,1001.56
2019-01-26T05:44:21.856Z,1001.57
2019-01-26T05:45:21.854Z,1001.52
2019-01-26T05:46:21.839Z,1001.59
2019-01-26T05:47:21.828Z,1001.52
2019-01-26T05:48:21.867Z,1001.53
2019-01-26T05:49:21.806Z,1001.44
2019-01-26T05:50:21.823Z,1001.49
2019-01-26T05:51:21.798Z,1001.48
2019-01-26T05:52:21.780Z,1001.45
2019-01-26T05:53:21.766Z,1001.42
2019-01-26T05:54:21.803Z,1001.36
2019-01-26T05:55:21.755Z,1001.44
2019-01-26T05:56:21.739Z,1001.46
2019-01-26T05:57:21.737Z,1001.37
2019-01-26T05:58:21.764Z,1001.36
2019-01-26T05:59:21.707Z,1001.36
2019-01-26T06:00:21.740Z,1001.31
2019-01-26T06:01:21.689Z,1001.27
2019-01-26T06:02:21.681Z,1001.29
2019-01-26T06:03:21.671Z,1001.28
2019-01-26T06:04:21.661Z,1001.31
2019-01-26T06:05:21.644Z,1001.31
2019-01-26T06:06:21.675Z,1001.25
2019-01-26T06:07:21.628Z,1001.32
2019-01-26T06:08:32.379Z,1001.29
2019-01-26T06:09:21.610Z,1001.30
2019-01-26T06:10:21.597Z,1001.31
2019-01-26T06:11:21.585Z,1001.27
2019-01-26T06:12:21.709Z,1001.29
2019-01-26T06:13:21.581Z,1001.27
2019-01-26T06:14:21.597Z,1001.27
2019-01-26T06:15:21.545Z,1001.21
2019-01-26T06:16:21.541Z,1001.22
2019-01-26T06:17:21.531Z,1001.22
2019-01-26T06:18:21.555Z,1001.19
2019-01-26T06:19:21.517Z,1001.14
2019-01-26T06:20:21.499Z,1001.15
2019-01-26T06:21:21.503Z,1001.15
2019-01-26T06:22:21.477Z,1001.14
2019-01-26T06:23:21.472Z,1001.02
2019-01-26T06:24:21.477Z,1001.02
2019-01-26T06:25:21.481Z,1001.10
2019-01-26T06:26:21.440Z,1001.00
2019-01-26T06:27:21.434Z,1001.04
2019-01-26T06:28:21.416Z,1001.00
2019-01-26T06:29:21.413Z,1000.99
2019-01-26T06:30:21.577Z,1000.95
2019-01-26T06:31:21.385Z,1000.98
2019-01-26T06:32:21.378Z,1000.91
2019-01-26T06:33:21.370Z,1000.93
2019-01-26T06:34:21.363Z,1000.87
2019-01-26T06:35:21.347Z,1000.91
2019-01-26T06:36:21.371Z,1000.86
2019-01-26T06:37:21.323Z,1000.87
2019-01-26T06:38:21.318Z,1000.86
2019-01-26T06:39:31.795Z,1000.84
2019-01-26T06:40:21.301Z,1000.86
2019-01-26T06:41:21.284Z,1000.86
2019-01-26T06:42:21.320Z,1000.80
2019-01-26T06:43:21.266Z,1000.82
2019-01-26T06:44:21.273Z,1000.86
2019-01-26T06:45:21.251Z,1000.85
2019-01-26T06:46:21.237Z,1000.79
2019-01-26T06:47:21.226Z,1000.81
2019-01-26T06:48:21.400Z,1000.80
2019-01-26T06:49:21.206Z,1000.77
2019-01-26T06:50:21.194Z,1000.77
2019-01-26T06:51:21.186Z,1000.77
2019-01-26T06:52:21.187Z,1000.77
2019-01-26T06:53:21.169Z,1000.75
2019-01-26T06:54:21.191Z,1000.69
2019-01-26T06:55:21.147Z,1000.71
2019-01-26T06:56:21.133Z,1000.68
2019-01-26T06:57:21.125Z,1000.67
2019-01-26T06:58:21.121Z,1000.66
2019-01-26T06:59:21.110Z,1000.64
2019-01-26T07:00:21.137Z,1000.60
2019-01-26T07:01:21.088Z,1000.66
2019-01-26T07:02:21.076Z,1000.60
2019-01-26T07:03:21.072Z,1000.62
2019-01-26T07:04:21.069Z,1000.58
2019-01-26T07:05:21.048Z,1000.54
2019-01-26T07:06:21.071Z,1000.52
2019-01-26T07:07:21.023Z,1000.51
2019-01-26T07:08:21.015Z,1000.48
2019-01-26T07:09:21.007Z,1000.48
2019-01-26T07:10:31.973Z,1000.48
2019-01-26T07:11:20.984Z,1000.47
2019-01-26T07:12:21.373Z,1000.46
2019-01-26T07:13:20.966Z,1000.44
2019-01-26T07:14:20.955Z,1000.43
2019-01-26T07:15:20.950Z,1000.43
2019-01-26T07:16:20.973Z,1000.42
2019-01-26T07:17:20.928Z,1000.39
2019-01-26T07:18:20.957Z,1000.38
2019-01-26T07:19:20.958Z,1000.43
2019-01-26T07:20:20.893Z,1000.36
2019-01-26T07:21:20.909Z,1000.35
2019-01-26T07:22:20.874Z,1000.36
2019-01-26T07:23:20.862Z,1000.36
2019-01-26T07:24:20.876Z,1000.33
2019-01-26T07:25:20.867Z,1000.32
2019-01-26T07:26:20.835Z,1000.28
2019-01-26T07:27:20.822Z,1000.32
2019-01-26T07:28:20.819Z,1000.27
2019-01-26T07:29:20.806Z,1000.31
2019-01-26T07:30:20.971Z,1000.30
2019-01-26T07:31:20.809Z,1000.25
2019-01-26T07:32:20.771Z,1000.22
2019-01-26T07:33:20.772Z,1000.20
2019-01-26T07:34:20.756Z,1000.15
2019-01-26T07:35:20.748Z,1000.19
2019-01-26T07:36:20.771Z,1000.16
2019-01-26T07:37:20.724Z,1000.13
2019-01-26T07:38:20.735Z,1000.11
2019-01-26T07:39:20.703Z,1000.12
2019-01-26T07:40:20.699Z,1000.09
2019-01-26T07:41:31.181Z,1000.09
2019-01-26T07:42:20.677Z,1000.10
2019-01-26T07:43:20.668Z,1000.07
2019-01-26T07:44:20.655Z,1000.02
2019-01-26T07:45:20.644Z,999.99
2019-01-26T07:46:20.655Z,999.97
2019-01-26T07:47:20.668Z,999.97
2019-01-26T07:48:20.637Z,1000.00
2019-01-26T07:49:20.599Z,1000.05
2019-01-26T07:50:20.591Z,999.98
2019-01-26T07:51:20.582Z,999.97
2019-01-26T07:52:20.573Z,999.96
2019-01-26T07:53:20.623Z,999.95
2019-01-26T07:54:20.552Z,999.95
2019-01-26T07:55:20.543Z,999.93
2019-01-26T07:56:20.530Z,999.94
2019-01-26T07:57:20.523Z,999.90
2019-01-26T07:58:20.511Z,999.93
2019-01-26T07:59:20.569Z,999.86
2019-01-26T08:00:20.494Z,999.82
2019-01-26T08:01:20.485Z,999.83
2019-01-26T08:02:20.475Z,999.84
2019-01-26T08:03:20.460Z,999.79
2019-01-26T08:04:20.454Z,999.78
2019-01-26T08:05:20.477Z,999.73
2019-01-26T08:06:20.460Z,999.73
2019-01-26T08:07:20.425Z,999.70
2019-01-26T08:08:20.412Z,999.74
2019-01-26T08:09:20.398Z,999.74
2019-01-26T08:10:20.395Z,999.69
2019-01-26T08:11:20.416Z,999.73
2019-01-26T08:12:31.059Z,999.72
2019-01-26T08:13:20.365Z,999.68
2019-01-26T08:14:20.350Z,999.67
2019-01-26T08:15:20.343Z,999.64
2019-01-26T08:16:20.329Z,999.61
2019-01-26T08:17:20.361Z,999.59
2019-01-26T08:18:24.239Z,999.53
2019-01-26T08:19:20.299Z,999.53
2019-01-26T08:20:20.292Z,999.50
2019-01-26T08:21:20.281Z,999.50
2019-01-26T08:22:20.271Z,999.48
2019-01-26T08:23:20.297Z,999.44
2019-01-26T08:24:20.252Z,999.47
2019-01-26T08:25:20.240Z,999.45
2019-01-26T08:26:20.231Z,999.47
2019-01-26T08:27:20.223Z,999.42
2019-01-26T08:28:20.212Z,999.35
2019-01-26T08:29:20.352Z,999.36
2019-01-26T08:30:20.195Z,999.31
2019-01-26T08:31:20.204Z,999.34
2019-01-26T08:32:20.167Z,999.29
2019-01-26T08:33:20.163Z,999.25
2019-01-26T08:34:20.163Z,999.28
2019-01-26T08:35:20.156Z,999.20
2019-01-26T08:36:20.130Z,999.24
2019-01-26T08:37:20.119Z,999.25
2019-01-26T08:38:20.107Z,999.27
2019-01-26T08:39:20.104Z,999.24
2019-01-26T08:40:20.115Z,999.31
2019-01-26T08:41:20.118Z,999.16
2019-01-26T08:42:20.069Z,999.21
2019-01-26T08:43:29.915Z,999.19
2019-01-26T08:44:20.049Z,999.21
2019-01-26T08:45:20.044Z,999.20
2019-01-26T08:46:20.037Z,999.11
2019-01-26T08:47:20.057Z,999.12
2019-01-26T08:48:20.011Z,999.12
2019-01-26T08:49:20.006Z,999.10
2019-01-26T08:50:19.993Z,999.07
2019-01-26T08:51:20.007Z,999.04
2019-01-26T08:52:19.966Z,999.09
2019-01-26T08:53:19.997Z,999.08
2019-01-26T08:54:21.470Z,999.01
2019-01-26T08:55:19.938Z,999.06
2019-01-26T08:56:19.982Z,998.99
2019-01-26T08:57:19.918Z,998.99
2019-01-26T08:58:19.912Z,999.01
2019-01-26T08:59:19.967Z,998.94
2019-01-26T09:00:19.913Z,998.97
2019-01-26T09:01:19.882Z,998.93
2019-01-26T09:02:25.445Z,998.95
2019-01-26T09:03:20.856Z,998.93
2019-01-26T09:04:19.849Z,998.86
2019-01-26T09:05:19.876Z,998.92
2019-01-26T09:06:19.862Z,998.90
2019-01-26T09:07:19.819Z,998.92
2019-01-26T09:08:19.807Z,998.88
2019-01-26T09:09:19.795Z,998.94
2019-01-26T09:10:19.785Z,998.91
2019-01-26T09:11:19.879Z,998.87
2019-01-26T09:12:19.958Z,998.82
2019-01-26T09:13:19.752Z,998.81
2019-01-26T09:14:30.043Z,998.78
2019-01-26T09:15:19.736Z,998.80
2019-01-26T09:16:19.726Z,998.76
2019-01-26T09:17:19.793Z,998.71
2019-01-26T09:18:19.702Z,998.73
2019-01-26T09:19:19.722Z,998.68
2019-01-26T09:20:19.682Z,998.72
2019-01-26T09:21:19.681Z,998.70
2019-01-26T09:22:19.679Z,998.67
2019-01-26T09:23:19.691Z,998.75
2019-01-26T09:24:19.685Z,998.64
2019-01-26T09:25:19.633Z,998.65
2019-01-26T09:26:19.620Z,998.60
2019-01-26T09:27:19.617Z,998.61
2019-01-26T09:28:19.599Z,998.54
2019-01-26T09:29:19.651Z,998.50
2019-01-26T09:30:19.581Z,998.51
2019-01-26T09:31:19.574Z,998.51
2019-01-26T09:32:19.564Z,998.52
2019-01-26T09:33:19.551Z,998.49
2019-01-26T09:34:19.545Z,998.47
2019-01-26T09:35:19.595Z,998.43
2019-01-26T09:36:19.519Z,998.48
2019-01-26T09:37:19.519Z,998.46
2019-01-26T09:38:19.500Z,998.46
2019-01-26T09:39:19.489Z,998.38
2019-01-26T09:40:19.483Z,998.31
2019-01-26T09:41:19.649Z,998.32
2019-01-26T09:42:19.454Z,998.32
2019-01-26T09:43:19.480Z,998.35
2019-01-26T09:44:19.443Z,998.28
2019-01-26T09:45:31.109Z,998.31
2019-01-26T09:46:19.415Z,998.28
2019-01-26T09:47:20.218Z,998.26
2019-01-26T09:48:19.402Z,998.24
2019-01-26T09:49:19.384Z,998.21
2019-01-26T09:50:19.391Z,998.22
2019-01-26T09:51:19.365Z,998.24
2019-01-26T09:52:19.361Z,998.19
2019-01-26T09:53:19.406Z,998.20
2019-01-26T09:54:19.333Z,998.20
2019-01-26T09:55:19.327Z,998.18
2019-01-26T09:56:19.311Z,998.23
2019-01-26T09:57:19.308Z,998.11
2019-01-26T09:58:20.030Z,998.11
2019-01-26T09:59:19.347Z,998.08
2019-01-26T10:00:19.286Z,998.05
2019-01-26T10:01:19.263Z,998.01
2019-01-26T10:02:19.254Z,998.00
2019-01-26T10:03:19.242Z,997.97
2019-01-26T10:04:19.237Z,997.88
2019-01-26T10:05:19.265Z,997.90
2019-01-26T10:06:19.211Z,997.90
2019-01-26T10:07:19.201Z,997.92
2019-01-26T10:08:19.193Z,997.87
2019-01-26T10:09:19.183Z,997.87
2019-01-26T10:10:19.174Z,997.78
2019-01-26T10:11:19.207Z,997.74
2019-01-26T10:12:19.145Z,997.77
2019-01-26T10:13:19.140Z,997.79
2019-01-26T10:14:19.126Z,997.75
2019-01-26T10:15:19.118Z,997.71
2019-01-26T10:16:30.307Z,997.72
2019-01-26T10:17:19.097Z,997.71
2019-01-26T10:18:19.086Z,997.65
2019-01-26T10:19:19.076Z,997.67
2019-01-26T10:20:19.069Z,997.64
2019-01-26T10:21:19.103Z,997.63
2019-01-26T10:22:19.066Z,997.63
2019-01-26T10:23:19.032Z,997.63
2019-01-26T10:24:19.044Z,997.58
2019-01-26T10:25:19.023Z,997.59
2019-01-26T10:26:19.006Z,997.60
2019-01-26T10:27:18.999Z,997.56
2019-01-26T10:28:19.020Z,997.53
2019-01-26T10:29:18.972Z,997.47
2019-01-26T10:30:19.121Z,997.51
2019-01-26T10:31:18.950Z,997.50
2019-01-26T10:32:18.942Z,997.44
2019-01-26T10:33:18.937Z,997.47
2019-01-26T10:34:18.952Z,997.41
2019-01-26T10:35:18.915Z,997.42
2019-01-26T10:36:18.922Z,997.45
2019-01-26T10:37:18.890Z,997.40
2019-01-26T10:38:18.875Z,997.40
2019-01-26T10:39:18.870Z,997.39
2019-01-26T10:40:18.893Z,997.38
2019-01-26T10:41:18.852Z,997.40
2019-01-26T10:42:18.857Z,997.36
2019-01-26T10:43:18.822Z,997.32
2019-01-26T10:44:18.812Z,997.34
2019-01-26T10:45:18.805Z,997.33
2019-01-26T10:46:18.834Z,997.30
2019-01-26T10:47:29.104Z,997.28
2019-01-26T10:48:18.775Z,997.25
2019-01-26T10:49:18.765Z,997.22
2019-01-26T10:50:18.756Z,997.21
2019-01-26T10:51:18.745Z,997.22
2019-01-26T10:52:18.770Z,997.24
2019-01-26T10:53:18.724Z,997.24
2019-01-26T10:54:18.716Z,997.26
2019-01-26T10:55:18.706Z,997.19
2019-01-26T10:56:18.690Z,997.14
2019-01-26T10:57:18.683Z,997.17
2019-01-26T10:58:18.706Z,997.12
2019-01-26T10:59:18.661Z,997.16
2019-01-26T11:00:18.652Z,997.12
2019-01-26T11:01:18.639Z,997.11
2019-01-26T11:02:18.640Z,997.11
2019-01-26T11:03:18.615Z,997.00
2019-01-26T11:04:18.642Z,997.11
2019-01-26T11:05:18.598Z,997.02
2019-01-26T11:06:18.594Z,997.04
2019-01-26T11:07:18.587Z,997.07
2019-01-26T11:08:18.571Z,997.08
2019-01-26T11:09:18.559Z,996.98
2019-01-26T11:10:18.722Z,996.98
2019-01-26T11:11:18.536Z,997.00
2019-01-26T11:12:18.526Z,996.99
2019-01-26T11:13:18.521Z,996.96
2019-01-26T11:14:18.507Z,996.95
2019-01-26T11:15:18.491Z,996.87
2019-01-26T11:16:18.501Z,996.89
2019-01-26T11:17:18.478Z,996.85
2019-01-26T11:18:28.411Z,996.88
2019-01-26T11:19:18.450Z,996.84
2019-01-26T11:20:18.445Z,996.85
2019-01-26T11:21:18.429Z,996.84
2019-01-26T11:22:18.463Z,996.81
2019-01-26T11:23:18.418Z,996.82
2019-01-26T11:24:18.399Z,996.80
2019-01-26T11:25:18.400Z,996.81
2019-01-26T11:26:18.395Z,996.82
2019-01-26T11:27:18.376Z,996.78
2019-01-26T11:28:18.376Z,996.74
2019-01-26T11:29:18.361Z,996.71
2019-01-26T11:30:18.340Z,996.68
2019-01-26T11:31:18.599Z,996.70
2019-01-26T11:32:18.321Z,996.68
2019-01-26T11:33:18.314Z,996.69
2019-01-26T11:34:18.358Z,996.67
2019-01-26T11:35:18.286Z,996.68
2019-01-26T11:36:18.278Z,996.63
2019-01-26T11:37:18.270Z,996.60
2019-01-26T11:38:18.262Z,996.57
2019-01-26T11:39:18.251Z,996.57
2019-01-26T11:40:18.303Z,996.55
2019-01-26T11:41:18.222Z,996.48
2019-01-26T11:42:18.218Z,996.53
2019-01-26T11:43:18.210Z,996.56
2019-01-26T11:44:18.193Z,996.51
2019-01-26T11:45:18.183Z,996.51
2019-01-26T11:46:18.327Z,996.51
2019-01-26T11:47:18.162Z,996.49
2019-01-26T11:48:18.150Z,996.47
2019-01-26T11:49:28.983Z,996.50
2019-01-26T11:50:18.132Z,996.44
2019-01-26T11:51:18.124Z,996.48
2019-01-26T11:52:18.159Z,996.43
2019-01-26T11:53:18.100Z,996.41
2019-01-26T11:54:18.087Z,996.37
2019-01-26T11:55:18.083Z,996.44
2019-01-26T11:56:18.074Z,996.37
2019-01-26T11:57:18.059Z,996.38
2019-01-26T11:58:18.124Z,996.35
2019-01-26T11:59:18.039Z,996.38
2019-01-26T12:00:18.030Z,996.31
2019-01-26T12:01:18.027Z,996.30
2019-01-26T12:02:18.030Z,996.30
2019-01-26T12:03:17.994Z,996.28
2019-01-26T12:04:18.031Z,996.30
2019-01-26T12:05:17.981Z,996.26
2019-01-26T12:06:17.964Z,996.27
2019-01-26T12:07:17.971Z,996.27
2019-01-26T12:08:17.945Z,996.32
2019-01-26T12:09:17.933Z,996.24
2019-01-26T12:10:17.968Z,996.24
2019-01-26T12:11:17.918Z,996.13
2019-01-26T12:12:17.909Z,996.18
2019-01-26T12:13:17.917Z,996.11